sensor_id;sensor_type;location;lat;lon;timestamp;P1;durP1;ratioP1;P2;durP2;ratioP2
51836;SDS011;38941;53.254;6.600;2022-11-20T00:01:58;14.18;;;7.90;;
51836;SDS011;38941;53.254;6.600;2022-11-20T00:04:00;15.57;;;7.70;;
51836;SDS011;38941;53.254;6.600;2022-11-20T00:06:03;14.45;;;6.80;;
51836;SDS011;38941;53.254;6.600;2022-11-20T00:08:06;16.52;;;6.78;;
51836;SDS011;38941;53.254;6.600;2022-11-20T00:10:08;13.18;;;6.57;;
51836;SDS011;38941;53.254;6.600;2022-11-20T00:12:10;11.30;;;5.35;;
51836;SDS011;38941;53.254;6.600;2022-11-20T00:14:12;11.82;;;6.55;;
51836;SDS011;38941;53.254;6.600;2022-11-20T00:16:14;12.40;;;6.53;;
51836;SDS011;38941;53.254;6.600;2022-11-20T00:18:17;15.23;;;7.22;;
51836;SDS011;38941;53.254;6.600;2022-11-20T00:20:18;14.05;;;6.78;;
51836;SDS011;38941;53.254;6.600;2022-11-20T00:22:20;16.67;;;6.65;;
51836;SDS011;38941;53.254;6.600;2022-11-20T00:24:21;12.57;;;6.65;;
51836;SDS011;38941;53.254;6.600;2022-11-20T00:26:23;13.38;;;6.20;;
51836;SDS011;38941;53.254;6.600;2022-11-20T00:28:26;13.80;;;6.93;;
51836;SDS011;38941;53.254;6.600;2022-11-20T00:30:27;13.13;;;6.70;;
51836;SDS011;38941;53.254;6.600;2022-11-20T00:32:29;18.45;;;6.35;;
51836;SDS011;38941;53.254;6.600;2022-11-20T00:34:31;16.45;;;7.07;;
51836;SDS011;38941;53.254;6.600;2022-11-20T00:36:32;16.15;;;7.05;;
51836;SDS011;38941;53.254;6.600;2022-11-20T00:38:35;14.02;;;6.85;;
51836;SDS011;38941;53.254;6.600;2022-11-20T00:40:37;14.57;;;7.00;;
51836;SDS011;38941;53.254;6.600;2022-11-20T00:42:39;14.18;;;6.50;;
51836;SDS011;38941;53.254;6.600;2022-11-20T00:44:40;14.13;;;6.63;;
51836;SDS011;38941;53.254;6.600;2022-11-20T00:46:42;15.48;;;6.38;;
51836;SDS011;38941;53.254;6.600;2022-11-20T00:48:44;14.63;;;6.65;;
51836;SDS011;38941;53.254;6.600;2022-11-20T00:50:52;12.95;;;5.82;;
51836;SDS011;38941;53.254;6.600;2022-11-20T00:52:55;15.10;;;7.35;;
51836;SDS011;38941;53.254;6.600;2022-11-20T00:54:56;13.40;;;7.18;;
51836;SDS011;38941;53.254;6.600;2022-11-20T00:56:58;14.00;;;7.10;;
51836;SDS011;38941;53.254;6.600;2022-11-20T00:59:00;16.08;;;6.18;;
51836;SDS011;38941;53.254;6.600;2022-11-20T01:01:03;16.17;;;6.80;;
51836;SDS011;38941;53.254;6.600;2022-11-20T01:03:05;13.25;;;6.43;;
51836;SDS011;38941;53.254;6.600;2022-11-20T01:05:06;12.00;;;6.35;;
51836;SDS011;38941;53.254;6.600;2022-11-20T01:07:09;11.90;;;5.57;;
51836;SDS011;38941;53.254;6.600;2022-11-20T01:09:12;12.20;;;6.28;;
51836;SDS011;38941;53.254;6.600;2022-11-20T01:11:18;15.00;;;6.18;;
51836;SDS011;38941;53.254;6.600;2022-11-20T01:13:21;13.43;;;6.63;;
51836;SDS011;38941;53.254;6.600;2022-11-20T01:15:38;11.70;;;5.97;;
51836;SDS011;38941;53.254;6.600;2022-11-20T01:17:40;11.80;;;6.32;;
51836;SDS011;38941;53.254;6.600;2022-11-20T01:19:40;11.70;;;5.93;;
51836;SDS011;38941;53.254;6.600;2022-11-20T01:21:42;15.48;;;6.35;;
51836;SDS011;38941;53.254;6.600;2022-11-20T01:23:45;11.38;;;5.80;;
51836;SDS011;38941;53.254;6.600;2022-11-20T01:25:48;13.20;;;6.22;;
51836;SDS011;38941;53.254;6.600;2022-11-20T01:27:52;12.32;;;6.22;;
51836;SDS011;38941;53.254;6.600;2022-11-20T01:29:53;13.20;;;6.25;;
51836;SDS011;38941;53.254;6.600;2022-11-20T01:31:55;11.98;;;5.82;;
51836;SDS011;38941;53.254;6.600;2022-11-20T01:33:59;11.18;;;5.38;;
51836;SDS011;38941;53.254;6.600;2022-11-20T01:36:03;11.55;;;5.80;;
51836;SDS011;38941;53.254;6.600;2022-11-20T01:38:07;12.05;;;5.13;;
51836;SDS011;38941;53.254;6.600;2022-11-20T01:40:08;11.02;;;4.85;;
51836;SDS011;38941;53.254;6.600;2022-11-20T01:42:10;9.90;;;5.15;;
51836;SDS011;38941;53.254;6.600;2022-11-20T01:46:59;9.10;;;4.97;;
51836;SDS011;38941;53.254;6.600;2022-11-20T01:49:08;12.88;;;5.53;;
51836;SDS011;38941;53.254;6.600;2022-11-20T01:51:38;9.85;;;5.35;;
51836;SDS011;38941;53.254;6.600;2022-11-20T01:54:07;12.07;;;5.97;;
51836;SDS011;38941;53.254;6.600;2022-11-20T01:56:13;12.30;;;6.43;;
51836;SDS011;38941;53.254;6.600;2022-11-20T01:58:16;11.77;;;5.55;;
51836;SDS011;38941;53.254;6.600;2022-11-20T02:00:22;11.82;;;5.53;;
51836;SDS011;38941;53.254;6.600;2022-11-20T02:02:24;8.50;;;4.97;;
51836;SDS011;38941;53.254;6.600;2022-11-20T02:04:27;11.13;;;5.05;;
51836;SDS011;38941;53.254;6.600;2022-11-20T02:06:34;13.18;;;5.85;;
51836;SDS011;38941;53.254;6.600;2022-11-20T02:08:39;11.65;;;5.22;;
51836;SDS011;38941;53.254;6.600;2022-11-20T02:10:44;9.35;;;5.13;;
51836;SDS011;38941;53.254;6.600;2022-11-20T02:12:45;11.35;;;5.55;;
51836;SDS011;38941;53.254;6.600;2022-11-20T02:15:06;13.38;;;5.32;;
51836;SDS011;38941;53.254;6.600;2022-11-20T02:17:08;10.05;;;4.97;;
51836;SDS011;38941;53.254;6.600;2022-11-20T02:19:13;13.05;;;5.82;;
51836;SDS011;38941;53.254;6.600;2022-11-20T02:21:30;9.67;;;5.30;;
51836;SDS011;38941;53.254;6.600;2022-11-20T02:26:03;10.52;;;5.25;;
51836;SDS011;38941;53.254;6.600;2022-11-20T02:28:09;10.00;;;5.50;;
51836;SDS011;38941;53.254;6.600;2022-11-20T02:30:10;11.02;;;5.13;;
51836;SDS011;38941;53.254;6.600;2022-11-20T02:32:25;10.02;;;5.25;;
51836;SDS011;38941;53.254;6.600;2022-11-20T02:36:35;11.13;;;5.40;;
51836;SDS011;38941;53.254;6.600;2022-11-20T02:38:39;12.25;;;5.63;;
51836;SDS011;38941;53.254;6.600;2022-11-20T02:40:40;11.00;;;5.40;;
51836;SDS011;38941;53.254;6.600;2022-11-20T02:42:42;12.50;;;5.90;;
51836;SDS011;38941;53.254;6.600;2022-11-20T02:44:43;12.57;;;6.10;;
51836;SDS011;38941;53.254;6.600;2022-11-20T02:46:45;12.45;;;6.05;;
51836;SDS011;38941;53.254;6.600;2022-11-20T02:48:46;13.68;;;5.75;;
51836;SDS011;38941;53.254;6.600;2022-11-20T02:50:48;14.05;;;6.43;;
51836;SDS011;38941;53.254;6.600;2022-11-20T02:52:48;9.57;;;5.68;;
51836;SDS011;38941;53.254;6.600;2022-11-20T02:54:50;13.45;;;5.88;;
51836;SDS011;38941;53.254;6.600;2022-11-20T02:56:51;10.43;;;5.35;;
51836;SDS011;38941;53.254;6.600;2022-11-20T02:58:52;11.50;;;5.85;;
51836;SDS011;38941;53.254;6.600;2022-11-20T03:00:54;9.98;;;5.53;;
51836;SDS011;38941;53.254;6.600;2022-11-20T03:02:55;12.30;;;5.57;;
51836;SDS011;38941;53.254;6.600;2022-11-20T03:04:57;9.38;;;5.00;;
51836;SDS011;38941;53.254;6.600;2022-11-20T03:06:59;8.02;;;4.45;;
51836;SDS011;38941;53.254;6.600;2022-11-20T03:09:01;10.95;;;4.43;;
51836;SDS011;38941;53.254;6.600;2022-11-20T03:11:04;8.65;;;4.38;;
51836;SDS011;38941;53.254;6.600;2022-11-20T03:13:06;9.40;;;3.97;;
51836;SDS011;38941;53.254;6.600;2022-11-20T03:15:08;8.90;;;4.45;;
51836;SDS011;38941;53.254;6.600;2022-11-20T03:17:10;9.77;;;4.07;;
51836;SDS011;38941;53.254;6.600;2022-11-20T03:19:12;10.90;;;4.28;;
51836;SDS011;38941;53.254;6.600;2022-11-20T03:21:13;8.93;;;4.13;;
51836;SDS011;38941;53.254;6.600;2022-11-20T03:23:16;11.75;;;4.40;;
51836;SDS011;38941;53.254;6.600;2022-11-20T03:25:18;11.15;;;4.90;;
51836;SDS011;38941;53.254;6.600;2022-11-20T03:27:20;9.85;;;4.55;;
51836;SDS011;38941;53.254;6.600;2022-11-20T03:29:21;10.40;;;4.57;;
51836;SDS011;38941;53.254;6.600;2022-11-20T03:31:31;7.95;;;3.85;;
51836;SDS011;38941;53.254;6.600;2022-11-20T03:33:35;9.55;;;4.60;;
51836;SDS011;38941;53.254;6.600;2022-11-20T03:35:37;8.20;;;4.82;;
51836;SDS011;38941;53.254;6.600;2022-11-20T03:37:39;9.05;;;4.22;;
51836;SDS011;38941;53.254;6.600;2022-11-20T03:39:42;9.20;;;4.60;;
51836;SDS011;38941;53.254;6.600;2022-11-20T03:41:44;9.75;;;4.20;;
51836;SDS011;38941;53.254;6.600;2022-11-20T03:44:03;9.40;;;4.70;;
51836;SDS011;38941;53.254;6.600;2022-11-20T03:46:07;12.45;;;4.90;;
51836;SDS011;38941;53.254;6.600;2022-11-20T03:48:09;9.15;;;4.45;;
51836;SDS011;38941;53.254;6.600;2022-11-20T03:50:11;9.68;;;4.65;;
51836;SDS011;38941;53.254;6.600;2022-11-20T03:52:14;7.82;;;4.13;;
51836;SDS011;38941;53.254;6.600;2022-11-20T03:54:16;7.53;;;3.92;;
51836;SDS011;38941;53.254;6.600;2022-11-20T03:56:19;10.95;;;4.50;;
51836;SDS011;38941;53.254;6.600;2022-11-20T03:58:24;10.07;;;4.97;;
51836;SDS011;38941;53.254;6.600;2022-11-20T04:00:26;8.98;;;4.13;;
51836;SDS011;38941;53.254;6.600;2022-11-20T04:02:28;9.70;;;3.55;;
51836;SDS011;38941;53.254;6.600;2022-11-20T04:04:29;7.38;;;3.67;;
51836;SDS011;38941;53.254;6.600;2022-11-20T04:06:35;10.18;;;4.45;;
51836;SDS011;38941;53.254;6.600;2022-11-20T04:08:38;7.45;;;2.95;;
51836;SDS011;38941;53.254;6.600;2022-11-20T04:10:40;5.93;;;3.58;;
51836;SDS011;38941;53.254;6.600;2022-11-20T04:12:40;6.07;;;3.50;;
51836;SDS011;38941;53.254;6.600;2022-11-20T04:14:43;7.22;;;3.60;;
51836;SDS011;38941;53.254;6.600;2022-11-20T04:16:44;7.03;;;3.35;;
51836;SDS011;38941;53.254;6.600;2022-11-20T04:18:46;6.60;;;3.60;;
51836;SDS011;38941;53.254;6.600;2022-11-20T04:20:48;6.40;;;3.50;;
51836;SDS011;38941;53.254;6.600;2022-11-20T04:22:52;7.00;;;3.60;;
51836;SDS011;38941;53.254;6.600;2022-11-20T04:24:54;6.95;;;3.72;;
51836;SDS011;38941;53.254;6.600;2022-11-20T04:26:56;8.77;;;3.72;;
51836;SDS011;38941;53.254;6.600;2022-11-20T04:28:58;6.15;;;3.40;;
51836;SDS011;38941;53.254;6.600;2022-11-20T04:31:06;6.10;;;3.17;;
51836;SDS011;38941;53.254;6.600;2022-11-20T04:33:09;6.97;;;3.35;;
51836;SDS011;38941;53.254;6.600;2022-11-20T04:35:10;5.57;;;3.25;;
51836;SDS011;38941;53.254;6.600;2022-11-20T04:37:11;7.10;;;3.83;;
51836;SDS011;38941;53.254;6.600;2022-11-20T04:39:14;6.15;;;3.53;;
51836;SDS011;38941;53.254;6.600;2022-11-20T04:41:20;6.90;;;3.42;;
51836;SDS011;38941;53.254;6.600;2022-11-20T04:43:22;8.18;;;4.25;;
51836;SDS011;38941;53.254;6.600;2022-11-20T04:45:24;6.70;;;3.50;;
51836;SDS011;38941;53.254;6.600;2022-11-20T04:47:25;7.38;;;3.55;;
51836;SDS011;38941;53.254;6.600;2022-11-20T04:49:27;6.18;;;3.30;;
51836;SDS011;38941;53.254;6.600;2022-11-20T04:51:28;6.85;;;3.40;;
51836;SDS011;38941;53.254;6.600;2022-11-20T04:53:32;8.35;;;4.05;;
51836;SDS011;38941;53.254;6.600;2022-11-20T04:55:33;8.35;;;4.13;;
51836;SDS011;38941;53.254;6.600;2022-11-20T04:57:35;8.65;;;3.88;;
51836;SDS011;38941;53.254;6.600;2022-11-20T04:59:37;8.80;;;4.03;;
51836;SDS011;38941;53.254;6.600;2022-11-20T05:01:39;9.27;;;4.45;;
51836;SDS011;38941;53.254;6.600;2022-11-20T05:03:41;8.75;;;4.47;;
51836;SDS011;38941;53.254;6.600;2022-11-20T05:05:43;7.82;;;3.80;;
51836;SDS011;38941;53.254;6.600;2022-11-20T05:07:45;9.60;;;3.88;;
51836;SDS011;38941;53.254;6.600;2022-11-20T05:09:47;9.90;;;4.25;;
51836;SDS011;38941;53.254;6.600;2022-11-20T05:11:49;9.82;;;4.30;;
51836;SDS011;38941;53.254;6.600;2022-11-20T05:13:51;7.75;;;3.92;;
51836;SDS011;38941;53.254;6.600;2022-11-20T05:15:52;9.10;;;4.28;;
51836;SDS011;38941;53.254;6.600;2022-11-20T05:17:53;9.65;;;4.43;;
51836;SDS011;38941;53.254;6.600;2022-11-20T05:19:54;10.07;;;4.78;;
51836;SDS011;38941;53.254;6.600;2022-11-20T05:21:56;8.43;;;4.20;;
51836;SDS011;38941;53.254;6.600;2022-11-20T05:24:00;10.98;;;4.60;;
51836;SDS011;38941;53.254;6.600;2022-11-20T05:26:02;8.52;;;4.70;;
51836;SDS011;38941;53.254;6.600;2022-11-20T05:28:03;7.85;;;3.97;;
51836;SDS011;38941;53.254;6.600;2022-11-20T05:30:04;10.38;;;4.65;;
51836;SDS011;38941;53.254;6.600;2022-11-20T05:32:06;7.63;;;4.13;;
51836;SDS011;38941;53.254;6.600;2022-11-20T05:34:10;10.30;;;4.55;;
51836;SDS011;38941;53.254;6.600;2022-11-20T05:36:12;10.63;;;5.00;;
51836;SDS011;38941;53.254;6.600;2022-11-20T05:38:15;9.57;;;4.40;;
51836;SDS011;38941;53.254;6.600;2022-11-20T05:40:17;8.90;;;4.85;;
51836;SDS011;38941;53.254;6.600;2022-11-20T05:42:18;8.07;;;4.38;;
51836;SDS011;38941;53.254;6.600;2022-11-20T05:44:32;10.55;;;5.22;;
51836;SDS011;38941;53.254;6.600;2022-11-20T05:46:34;10.50;;;5.00;;
51836;SDS011;38941;53.254;6.600;2022-11-20T05:48:35;11.05;;;5.22;;
51836;SDS011;38941;53.254;6.600;2022-11-20T05:50:38;11.13;;;5.40;;
51836;SDS011;38941;53.254;6.600;2022-11-20T05:52:40;9.93;;;4.72;;
51836;SDS011;38941;53.254;6.600;2022-11-20T05:54:42;9.70;;;4.80;;
51836;SDS011;38941;53.254;6.600;2022-11-20T05:56:44;10.18;;;4.95;;
51836;SDS011;38941;53.254;6.600;2022-11-20T05:58:45;8.48;;;4.50;;
51836;SDS011;38941;53.254;6.600;2022-11-20T06:00:47;12.70;;;4.57;;
51836;SDS011;38941;53.254;6.600;2022-11-20T06:02:57;9.00;;;4.80;;
51836;SDS011;38941;53.254;6.600;2022-11-20T06:04:58;10.65;;;5.05;;
51836;SDS011;38941;53.254;6.600;2022-11-20T06:06:59;9.98;;;4.45;;
51836;SDS011;38941;53.254;6.600;2022-11-20T06:09:01;9.15;;;4.97;;
51836;SDS011;38941;53.254;6.600;2022-11-20T06:11:04;10.02;;;4.80;;
51836;SDS011;38941;53.254;6.600;2022-11-20T06:13:06;8.75;;;4.10;;
51836;SDS011;38941;53.254;6.600;2022-11-20T06:15:08;8.55;;;4.32;;
51836;SDS011;38941;53.254;6.600;2022-11-20T06:17:10;9.70;;;4.22;;
51836;SDS011;38941;53.254;6.600;2022-11-20T06:19:11;9.13;;;4.28;;
51836;SDS011;38941;53.254;6.600;2022-11-20T06:21:17;10.13;;;4.78;;
51836;SDS011;38941;53.254;6.600;2022-11-20T06:23:23;9.45;;;4.20;;
51836;SDS011;38941;53.254;6.600;2022-11-20T06:25:26;11.48;;;4.55;;
51836;SDS011;38941;53.254;6.600;2022-11-20T06:27:29;10.23;;;4.13;;
51836;SDS011;38941;53.254;6.600;2022-11-20T06:29:30;7.10;;;3.70;;
51836;SDS011;38941;53.254;6.600;2022-11-20T06:31:31;10.55;;;4.28;;
51836;SDS011;38941;53.254;6.600;2022-11-20T06:33:37;8.73;;;4.15;;
51836;SDS011;38941;53.254;6.600;2022-11-20T06:35:39;10.43;;;4.70;;
51836;SDS011;38941;53.254;6.600;2022-11-20T06:37:40;9.32;;;4.53;;
51836;SDS011;38941;53.254;6.600;2022-11-20T06:39:41;7.75;;;4.13;;
51836;SDS011;38941;53.254;6.600;2022-11-20T06:41:43;9.55;;;4.22;;
51836;SDS011;38941;53.254;6.600;2022-11-20T06:43:44;11.68;;;4.82;;
51836;SDS011;38941;53.254;6.600;2022-11-20T06:45:45;9.23;;;4.43;;
51836;SDS011;38941;53.254;6.600;2022-11-20T06:47:45;9.13;;;4.28;;
51836;SDS011;38941;53.254;6.600;2022-11-20T06:49:47;8.60;;;4.68;;
51836;SDS011;38941;53.254;6.600;2022-11-20T06:51:49;8.60;;;4.25;;
51836;SDS011;38941;53.254;6.600;2022-11-20T06:53:50;9.82;;;4.25;;
51836;SDS011;38941;53.254;6.600;2022-11-20T06:55:52;9.68;;;4.60;;
51836;SDS011;38941;53.254;6.600;2022-11-20T06:57:57;8.70;;;4.00;;
51836;SDS011;38941;53.254;6.600;2022-11-20T06:59:58;10.43;;;4.32;;
51836;SDS011;38941;53.254;6.600;2022-11-20T07:01:59;9.73;;;4.63;;
51836;SDS011;38941;53.254;6.600;2022-11-20T07:04:01;8.57;;;4.25;;
51836;SDS011;38941;53.254;6.600;2022-11-20T07:06:03;9.23;;;4.72;;
51836;SDS011;38941;53.254;6.600;2022-11-20T07:08:06;8.23;;;4.43;;
51836;SDS011;38941;53.254;6.600;2022-11-20T07:10:07;8.55;;;4.63;;
51836;SDS011;38941;53.254;6.600;2022-11-20T07:12:09;11.60;;;4.60;;
51836;SDS011;38941;53.254;6.600;2022-11-20T07:14:10;9.38;;;4.18;;
51836;SDS011;38941;53.254;6.600;2022-11-20T07:16:11;7.47;;;4.05;;
51836;SDS011;38941;53.254;6.600;2022-11-20T07:18:14;8.80;;;4.45;;
51836;SDS011;38941;53.254;6.600;2022-11-20T07:20:15;9.88;;;4.68;;
51836;SDS011;38941;53.254;6.600;2022-11-20T07:22:16;8.85;;;4.43;;
51836;SDS011;38941;53.254;6.600;2022-11-20T07:24:17;9.30;;;4.43;;
51836;SDS011;38941;53.254;6.600;2022-11-20T07:26:18;7.78;;;4.07;;
51836;SDS011;38941;53.254;6.600;2022-11-20T07:28:20;10.05;;;4.28;;
51836;SDS011;38941;53.254;6.600;2022-11-20T07:30:21;9.18;;;4.30;;
51836;SDS011;38941;53.254;6.600;2022-11-20T07:32:23;8.55;;;4.40;;
51836;SDS011;38941;53.254;6.600;2022-11-20T07:34:29;9.80;;;4.53;;
51836;SDS011;38941;53.254;6.600;2022-11-20T07:36:31;8.70;;;4.43;;
51836;SDS011;38941;53.254;6.600;2022-11-20T07:38:35;10.48;;;4.78;;
51836;SDS011;38941;53.254;6.600;2022-11-20T07:40:39;11.02;;;4.82;;
51836;SDS011;38941;53.254;6.600;2022-11-20T07:42:53;10.50;;;5.18;;
51836;SDS011;38941;53.254;6.600;2022-11-20T07:44:56;7.10;;;4.10;;
51836;SDS011;38941;53.254;6.600;2022-11-20T07:46:58;10.90;;;4.70;;
51836;SDS011;38941;53.254;6.600;2022-11-20T07:48:58;8.32;;;4.18;;
51836;SDS011;38941;53.254;6.600;2022-11-20T07:50:59;9.85;;;5.10;;
51836;SDS011;38941;53.254;6.600;2022-11-20T07:53:02;11.60;;;5.15;;
51836;SDS011;38941;53.254;6.600;2022-11-20T07:55:06;10.90;;;4.40;;
51836;SDS011;38941;53.254;6.600;2022-11-20T07:57:08;9.80;;;4.72;;
51836;SDS011;38941;53.254;6.600;2022-11-20T07:59:10;10.02;;;4.95;;
51836;SDS011;38941;53.254;6.600;2022-11-20T08:01:12;8.88;;;4.13;;
51836;SDS011;38941;53.254;6.600;2022-11-20T08:03:13;10.05;;;4.65;;
51836;SDS011;38941;53.254;6.600;2022-11-20T08:05:18;11.63;;;5.03;;
51836;SDS011;38941;53.254;6.600;2022-11-20T08:07:19;9.10;;;4.28;;
51836;SDS011;38941;53.254;6.600;2022-11-20T08:09:21;10.65;;;4.70;;
51836;SDS011;38941;53.254;6.600;2022-11-20T08:11:24;9.07;;;4.68;;
51836;SDS011;38941;53.254;6.600;2022-11-20T08:13:43;9.93;;;4.65;;
51836;SDS011;38941;53.254;6.600;2022-11-20T08:16:03;8.25;;;4.35;;
51836;SDS011;38941;53.254;6.600;2022-11-20T08:18:07;10.52;;;5.28;;
51836;SDS011;38941;53.254;6.600;2022-11-20T08:20:12;11.27;;;5.15;;
51836;SDS011;38941;53.254;6.600;2022-11-20T08:22:12;7.82;;;4.25;;
51836;SDS011;38941;53.254;6.600;2022-11-20T08:24:14;8.57;;;4.55;;
51836;SDS011;38941;53.254;6.600;2022-11-20T08:26:16;11.38;;;5.00;;
51836;SDS011;38941;53.254;6.600;2022-11-20T08:28:18;10.27;;;4.97;;
51836;SDS011;38941;53.254;6.600;2022-11-20T08:30:18;11.13;;;5.47;;
51836;SDS011;38941;53.254;6.600;2022-11-20T08:32:19;9.52;;;5.07;;
51836;SDS011;38941;53.254;6.600;2022-11-20T08:34:21;9.52;;;4.88;;
51836;SDS011;38941;53.254;6.600;2022-11-20T08:36:22;9.88;;;4.72;;
51836;SDS011;38941;53.254;6.600;2022-11-20T08:38:25;8.85;;;4.60;;
51836;SDS011;38941;53.254;6.600;2022-11-20T08:40:26;8.85;;;4.55;;
51836;SDS011;38941;53.254;6.600;2022-11-20T08:42:27;11.70;;;5.57;;
51836;SDS011;38941;53.254;6.600;2022-11-20T08:44:29;12.13;;;4.90;;
51836;SDS011;38941;53.254;6.600;2022-11-20T08:48:38;11.05;;;5.10;;
51836;SDS011;38941;53.254;6.600;2022-11-20T08:50:39;10.27;;;5.15;;
51836;SDS011;38941;53.254;6.600;2022-11-20T08:52:40;9.40;;;5.43;;
51836;SDS011;38941;53.254;6.600;2022-11-20T08:54:42;9.65;;;4.93;;
51836;SDS011;38941;53.254;6.600;2022-11-20T08:56:43;8.82;;;4.75;;
51836;SDS011;38941;53.254;6.600;2022-11-20T08:58:44;11.75;;;5.38;;
51836;SDS011;38941;53.254;6.600;2022-11-20T09:00:45;10.20;;;5.75;;
51836;SDS011;38941;53.254;6.600;2022-11-20T09:02:46;9.77;;;4.88;;
51836;SDS011;38941;53.254;6.600;2022-11-20T09:04:48;9.20;;;4.85;;
51836;SDS011;38941;53.254;6.600;2022-11-20T09:06:50;10.35;;;5.07;;
51836;SDS011;38941;53.254;6.600;2022-11-20T09:08:54;8.38;;;4.82;;
51836;SDS011;38941;53.254;6.600;2022-11-20T09:10:58;9.63;;;4.97;;
51836;SDS011;38941;53.254;6.600;2022-11-20T09:12:59;14.48;;;5.72;;
51836;SDS011;38941;53.254;6.600;2022-11-20T09:15:01;9.30;;;5.13;;
51836;SDS011;38941;53.254;6.600;2022-11-20T09:17:03;11.10;;;5.63;;
51836;SDS011;38941;53.254;6.600;2022-11-20T09:19:05;14.30;;;6.28;;
51836;SDS011;38941;53.254;6.600;2022-11-20T09:21:06;11.73;;;4.95;;
51836;SDS011;38941;53.254;6.600;2022-11-20T09:23:12;9.98;;;5.13;;
51836;SDS011;38941;53.254;6.600;2022-11-20T09:25:13;11.00;;;5.25;;
51836;SDS011;38941;53.254;6.600;2022-11-20T09:27:14;12.85;;;5.20;;
51836;SDS011;38941;53.254;6.600;2022-11-20T09:29:21;9.20;;;4.88;;
51836;SDS011;38941;53.254;6.600;2022-11-20T09:31:23;11.45;;;5.78;;
51836;SDS011;38941;53.254;6.600;2022-11-20T09:33:29;11.90;;;5.45;;
51836;SDS011;38941;53.254;6.600;2022-11-20T09:35:30;10.27;;;5.45;;
51836;SDS011;38941;53.254;6.600;2022-11-20T09:37:31;10.48;;;5.80;;
51836;SDS011;38941;53.254;6.600;2022-11-20T09:39:33;10.02;;;5.05;;
51836;SDS011;38941;53.254;6.600;2022-11-20T09:41:57;14.93;;;5.50;;
51836;SDS011;38941;53.254;6.600;2022-11-20T09:44:13;12.43;;;5.75;;
51836;SDS011;38941;53.254;6.600;2022-11-20T09:46:47;14.20;;;6.45;;
51836;SDS011;38941;53.254;6.600;2022-11-20T09:55:41;9.75;;;4.93;;
51836;SDS011;38941;53.254;6.600;2022-11-20T09:57:43;10.45;;;5.30;;
51836;SDS011;38941;53.254;6.600;2022-11-20T09:59:50;12.55;;;5.60;;
51836;SDS011;38941;53.254;6.600;2022-11-20T10:02:01;11.15;;;5.20;;
51836;SDS011;38941;53.254;6.600;2022-11-20T10:04:13;12.85;;;5.63;;
51836;SDS011;38941;53.254;6.600;2022-11-20T10:06:18;9.10;;;5.18;;
51836;SDS011;38941;53.254;6.600;2022-11-20T10:08:28;11.18;;;5.57;;
51836;SDS011;38941;53.254;6.600;2022-11-20T10:11:13;9.05;;;5.13;;
51836;SDS011;38941;53.254;6.600;2022-11-20T10:13:20;10.40;;;5.75;;
51836;SDS011;38941;53.254;6.600;2022-11-20T10:15:50;10.95;;;5.13;;
51836;SDS011;38941;53.254;6.600;2022-11-20T10:18:18;10.63;;;5.68;;
51836;SDS011;38941;53.254;6.600;2022-11-20T10:20:32;12.98;;;5.72;;
51836;SDS011;38941;53.254;6.600;2022-11-20T10:26:54;9.82;;;5.38;;
51836;SDS011;38941;53.254;6.600;2022-11-20T10:29:09;13.77;;;5.70;;
51836;SDS011;38941;53.254;6.600;2022-11-20T10:31:12;10.20;;;5.50;;
51836;SDS011;38941;53.254;6.600;2022-11-20T10:33:35;11.15;;;5.75;;
51836;SDS011;38941;53.254;6.600;2022-11-20T10:37:47;11.73;;;5.95;;
51836;SDS011;38941;53.254;6.600;2022-11-20T10:40:37;11.98;;;6.68;;
51836;SDS011;38941;53.254;6.600;2022-11-20T10:42:34;9.82;;;5.03;;
51836;SDS011;38941;53.254;6.600;2022-11-20T10:44:47;12.60;;;5.10;;
51836;SDS011;38941;53.254;6.600;2022-11-20T10:47:01;10.77;;;5.00;;
51836;SDS011;38941;53.254;6.600;2022-11-20T10:49:16;10.35;;;4.32;;
51836;SDS011;38941;53.254;6.600;2022-11-20T11:02:29;10.88;;;4.78;;
51836;SDS011;38941;53.254;6.600;2022-11-20T11:04:42;8.48;;;5.15;;
51836;SDS011;38941;53.254;6.600;2022-11-20T11:06:47;13.77;;;4.70;;
51836;SDS011;38941;53.254;6.600;2022-11-20T11:08:51;9.30;;;4.57;;
51836;SDS011;38941;53.254;6.600;2022-11-20T11:10:59;9.82;;;4.82;;
51836;SDS011;38941;53.254;6.600;2022-11-20T11:13:02;8.48;;;4.25;;
51836;SDS011;38941;53.254;6.600;2022-11-20T11:15:03;9.13;;;4.15;;
51836;SDS011;38941;53.254;6.600;2022-11-20T11:17:17;11.18;;;4.72;;
51836;SDS011;38941;53.254;6.600;2022-11-20T11:19:39;9.07;;;4.85;;
51836;SDS011;38941;53.254;6.600;2022-11-20T11:21:47;9.63;;;4.45;;
51836;SDS011;38941;53.254;6.600;2022-11-20T11:23:56;9.18;;;4.78;;
51836;SDS011;38941;53.254;6.600;2022-11-20T11:26:00;8.50;;;4.32;;
51836;SDS011;38941;53.254;6.600;2022-11-20T11:30:18;7.57;;;4.10;;
51836;SDS011;38941;53.254;6.600;2022-11-20T11:32:20;9.73;;;4.82;;
51836;SDS011;38941;53.254;6.600;2022-11-20T11:34:22;8.35;;;4.30;;
51836;SDS011;38941;53.254;6.600;2022-11-20T11:36:22;10.75;;;4.45;;
51836;SDS011;38941;53.254;6.600;2022-11-20T11:40:31;8.98;;;4.38;;
51836;SDS011;38941;53.254;6.600;2022-11-20T11:42:35;8.38;;;4.57;;
51836;SDS011;38941;53.254;6.600;2022-11-20T11:44:45;8.98;;;4.57;;
51836;SDS011;38941;53.254;6.600;2022-11-20T11:47:29;9.25;;;4.65;;
51836;SDS011;38941;53.254;6.600;2022-11-20T11:49:43;8.73;;;4.25;;
51836;SDS011;38941;53.254;6.600;2022-11-20T11:51:56;7.15;;;4.25;;
51836;SDS011;38941;53.254;6.600;2022-11-20T11:54:13;8.90;;;4.22;;
51836;SDS011;38941;53.254;6.600;2022-11-20T11:56:29;7.63;;;3.85;;
51836;SDS011;38941;53.254;6.600;2022-11-20T11:58:44;8.18;;;3.92;;
51836;SDS011;38941;53.254;6.600;2022-11-20T12:03:29;9.50;;;4.53;;
51836;SDS011;38941;53.254;6.600;2022-11-20T12:05:39;8.15;;;4.07;;
51836;SDS011;38941;53.254;6.600;2022-11-20T12:09:51;8.45;;;4.45;;
51836;SDS011;38941;53.254;6.600;2022-11-20T12:12:05;9.35;;;4.57;;
51836;SDS011;38941;53.254;6.600;2022-11-20T12:14:20;9.45;;;4.03;;
51836;SDS011;38941;53.254;6.600;2022-11-20T12:16:25;7.57;;;4.10;;
51836;SDS011;38941;53.254;6.600;2022-11-20T12:18:25;8.07;;;4.25;;
51836;SDS011;38941;53.254;6.600;2022-11-20T12:20:29;7.00;;;4.05;;
51836;SDS011;38941;53.254;6.600;2022-11-20T12:31:40;5.82;;;2.80;;
51836;SDS011;38941;53.254;6.600;2022-11-20T12:36:37;6.15;;;3.50;;
51836;SDS011;38941;53.254;6.600;2022-11-20T12:41:31;7.85;;;3.33;;
51836;SDS011;38941;53.254;6.600;2022-11-20T12:44:06;7.15;;;3.97;;
51836;SDS011;38941;53.254;6.600;2022-11-20T12:46:48;7.78;;;3.22;;
51836;SDS011;38941;53.254;6.600;2022-11-20T12:58:05;6.85;;;3.42;;
51836;SDS011;38941;53.254;6.600;2022-11-20T13:00:19;5.75;;;3.30;;
51836;SDS011;38941;53.254;6.600;2022-11-20T13:07:19;5.45;;;2.67;;
51836;SDS011;38941;53.254;6.600;2022-11-20T13:09:22;4.72;;;2.65;;
51836;SDS011;38941;53.254;6.600;2022-11-20T13:16:49;6.07;;;2.45;;
51836;SDS011;38941;53.254;6.600;2022-11-20T13:18:36;6.68;;;2.88;;
51836;SDS011;38941;53.254;6.600;2022-11-20T13:20:43;4.90;;;2.65;;
51836;SDS011;38941;53.254;6.600;2022-11-20T13:22:45;5.30;;;2.75;;
51836;SDS011;38941;53.254;6.600;2022-11-20T13:24:51;4.13;;;2.55;;
51836;SDS011;38941;53.254;6.600;2022-11-20T13:29:24;7.65;;;3.38;;
51836;SDS011;38941;53.254;6.600;2022-11-20T13:33:34;6.55;;;3.05;;
51836;SDS011;38941;53.254;6.600;2022-11-20T13:35:40;5.93;;;3.30;;
51836;SDS011;38941;53.254;6.600;2022-11-20T13:37:42;6.30;;;3.28;;
51836;SDS011;38941;53.254;6.600;2022-11-20T13:39:44;5.68;;;2.88;;
51836;SDS011;38941;53.254;6.600;2022-11-20T13:41:53;6.20;;;3.10;;
51836;SDS011;38941;53.254;6.600;2022-11-20T13:44:15;6.45;;;3.33;;
51836;SDS011;38941;53.254;6.600;2022-11-20T13:46:44;5.47;;;3.00;;
51836;SDS011;38941;53.254;6.600;2022-11-20T13:48:47;7.55;;;2.83;;